sensor_id;sensor_type;location;lat;lon;timestamp;P1;durP1;ratioP1;P2;durP2;ratioP2
55813;SDS011;65494;42.818;0.404;2023-04-24T00:00:11;0.98;;;0.70;;
55813;SDS011;65494;42.818;0.404;2023-04-24T00:02:39;0.80;;;0.57;;
55813;SDS011;65494;42.818;0.404;2023-04-24T00:05:06;1.40;;;0.60;;
55813;SDS011;65494;42.818;0.404;2023-04-24T00:07:32;0.70;;;0.60;;
55813;SDS011;65494;42.818;0.404;2023-04-24T00:09:58;2.90;;;0.70;;
55813;SDS011;65494;42.818;0.404;2023-04-24T00:12:25;0.40;;;0.40;;
55813;SDS011;65494;42.818;0.404;2023-04-24T00:14:51;0.60;;;0.60;;
55813;SDS011;65494;42.818;0.404;2023-04-24T00:17:17;0.57;;;0.50;;
55813;SDS011;65494;42.818;0.404;2023-04-24T00:19:48;0.50;;;0.40;;
55813;SDS011;65494;42.818;0.404;2023-04-24T00:22:27;1.23;;;0.43;;
55813;SDS011;65494;42.818;0.404;2023-04-24T00:24:53;1.42;;;0.50;;
55813;SDS011;65494;42.818;0.404;2023-04-24T00:27:19;1.08;;;0.40;;
55813;SDS011;65494;42.818;0.404;2023-04-24T00:29:45;0.45;;;0.40;;
55813;SDS011;65494;42.818;0.404;2023-04-24T00:32:11;0.43;;;0.40;;
55813;SDS011;65494;42.818;0.404;2023-04-24T00:34:37;0.40;;;0.40;;
55813;SDS011;65494;42.818;0.404;2023-04-24T00:37:03;0.77;;;0.43;;
55813;SDS011;65494;42.818;0.404;2023-04-24T00:39:30;1.00;;;0.50;;
55813;SDS011;65494;42.818;0.404;2023-04-24T00:41:56;0.57;;;0.43;;
55813;SDS011;65494;42.818;0.404;2023-04-24T00:44:22;0.47;;;0.47;;
55813;SDS011;65494;42.818;0.404;2023-04-24T00:46:49;0.65;;;0.50;;
55813;SDS011;65494;42.818;0.404;2023-04-24T00:49:19;1.20;;;0.60;;
55813;SDS011;65494;42.818;0.404;2023-04-24T00:51:45;2.35;;;0.52;;
55813;SDS011;65494;42.818;0.404;2023-04-24T00:54:15;0.52;;;0.52;;
55813;SDS011;65494;42.818;0.404;2023-04-24T00:56:41;1.17;;;0.70;;
55813;SDS011;65494;42.818;0.404;2023-04-24T00:59:08;0.77;;;0.70;;
55813;SDS011;65494;42.818;0.404;2023-04-24T01:01:34;1.52;;;0.70;;
55813;SDS011;65494;42.818;0.404;2023-04-24T01:04:00;0.90;;;0.57;;
55813;SDS011;65494;42.818;0.404;2023-04-24T01:06:28;1.15;;;0.80;;
55813;SDS011;65494;42.818;0.404;2023-04-24T01:08:56;0.70;;;0.68;;
55813;SDS011;65494;42.818;0.404;2023-04-24T01:11:22;1.48;;;0.55;;
55813;SDS011;65494;42.818;0.404;2023-04-24T01:13:49;7.00;;;0.70;;
55813;SDS011;65494;42.818;0.404;2023-04-24T01:16:15;12.70;;;1.05;;
55813;SDS011;65494;42.818;0.404;2023-04-24T01:18:42;2.72;;;0.70;;
55813;SDS011;65494;42.818;0.404;2023-04-24T01:21:08;6.28;;;0.90;;
55813;SDS011;65494;42.818;0.404;2023-04-24T01:23:35;2.67;;;1.05;;
55813;SDS011;65494;42.818;0.404;2023-04-24T01:26:01;2.17;;;0.90;;
55813;SDS011;65494;42.818;0.404;2023-04-24T01:28:27;1.55;;;0.73;;
55813;SDS011;65494;42.818;0.404;2023-04-24T01:30:53;1.63;;;1.20;;
55813;SDS011;65494;42.818;0.404;2023-04-24T01:33:20;2.33;;;1.13;;
55813;SDS011;65494;42.818;0.404;2023-04-24T01:35:47;3.22;;;0.75;;
55813;SDS011;65494;42.818;0.404;2023-04-24T01:38:13;6.63;;;1.33;;
55813;SDS011;65494;42.818;0.404;2023-04-24T01:40:39;23.02;;;1.83;;
55813;SDS011;65494;42.818;0.404;2023-04-24T01:43:05;2.63;;;1.00;;
55813;SDS011;65494;42.818;0.404;2023-04-24T01:45:31;31.52;;;1.92;;
55813;SDS011;65494;42.818;0.404;2023-04-24T01:47:57;29.95;;;1.63;;
55813;SDS011;65494;42.818;0.404;2023-04-24T01:50:23;37.88;;;2.83;;
55813;SDS011;65494;42.818;0.404;2023-04-24T01:52:49;1.75;;;1.02;;
55813;SDS011;65494;42.818;0.404;2023-04-24T01:55:16;0.80;;;0.80;;
55813;SDS011;65494;42.818;0.404;2023-04-24T01:57:42;1.08;;;0.60;;
55813;SDS011;65494;42.818;0.404;2023-04-24T02:00:08;1.55;;;0.70;;
55813;SDS011;65494;42.818;0.404;2023-04-24T02:02:36;1.83;;;1.00;;
55813;SDS011;65494;42.818;0.404;2023-04-24T02:05:02;12.73;;;0.90;;
55813;SDS011;65494;42.818;0.404;2023-04-24T02:07:28;8.63;;;1.30;;
55813;SDS011;65494;42.818;0.404;2023-04-24T02:09:54;37.67;;;2.17;;
55813;SDS011;65494;42.818;0.404;2023-04-24T02:12:20;44.28;;;2.75;;
55813;SDS011;65494;42.818;0.404;2023-04-24T02:14:46;31.73;;;1.58;;
55813;SDS011;65494;42.818;0.404;2023-04-24T02:17:12;34.40;;;2.42;;
55813;SDS011;65494;42.818;0.404;2023-04-24T02:19:40;9.40;;;1.40;;
55813;SDS011;65494;42.818;0.404;2023-04-24T02:22:06;1.67;;;1.20;;
55813;SDS011;65494;42.818;0.404;2023-04-24T02:24:32;1.55;;;0.90;;
55813;SDS011;65494;42.818;0.404;2023-04-24T02:26:58;0.85;;;0.73;;
55813;SDS011;65494;42.818;0.404;2023-04-24T02:29:25;1.27;;;0.60;;
55813;SDS011;65494;42.818;0.404;2023-04-24T02:31:51;0.85;;;0.73;;
55813;SDS011;65494;42.818;0.404;2023-04-24T02:34:17;1.00;;;0.90;;
55813;SDS011;65494;42.818;0.404;2023-04-24T02:36:43;1.08;;;0.90;;
55813;SDS011;65494;42.818;0.404;2023-04-24T02:39:09;9.73;;;1.17;;
55813;SDS011;65494;42.818;0.404;2023-04-24T02:41:35;11.90;;;2.25;;
55813;SDS011;65494;42.818;0.404;2023-04-24T02:44:01;48.67;;;2.67;;
55813;SDS011;65494;42.818;0.404;2023-04-24T02:46:28;76.60;;;3.90;;
55813;SDS011;65494;42.818;0.404;2023-04-24T02:48:54;2.85;;;1.30;;
55813;SDS011;65494;42.818;0.404;2023-04-24T02:51:20;33.83;;;2.65;;
55813;SDS011;65494;42.818;0.404;2023-04-24T02:53:46;2.03;;;1.15;;
55813;SDS011;65494;42.818;0.404;2023-04-24T02:56:12;1.27;;;1.00;;
55813;SDS011;65494;42.818;0.404;2023-04-24T02:58:38;10.95;;;1.13;;
55813;SDS011;65494;42.818;0.404;2023-04-24T03:01:04;51.58;;;5.47;;
55813;SDS011;65494;42.818;0.404;2023-04-24T03:03:31;24.77;;;2.17;;
55813;SDS011;65494;42.818;0.404;2023-04-24T03:05:57;18.95;;;1.73;;
55813;SDS011;65494;42.818;0.404;2023-04-24T03:08:23;14.77;;;1.30;;
55813;SDS011;65494;42.818;0.404;2023-04-24T03:10:49;1.45;;;0.93;;
55813;SDS011;65494;42.818;0.404;2023-04-24T03:13:15;4.30;;;1.30;;
55813;SDS011;65494;42.818;0.404;2023-04-24T03:15:42;8.38;;;1.05;;
55813;SDS011;65494;42.818;0.404;2023-04-24T03:18:08;1.08;;;0.98;;
55813;SDS011;65494;42.818;0.404;2023-04-24T03:20:34;1.90;;;1.20;;
55813;SDS011;65494;42.818;0.404;2023-04-24T03:23:01;3.13;;;1.23;;
55813;SDS011;65494;42.818;0.404;2023-04-24T03:25:28;7.13;;;1.02;;
55813;SDS011;65494;42.818;0.404;2023-04-24T03:27:54;4.70;;;1.10;;
55813;SDS011;65494;42.818;0.404;2023-04-24T03:30:20;2.42;;;1.00;;
55813;SDS011;65494;42.818;0.404;2023-04-24T03:32:46;11.98;;;1.10;;
55813;SDS011;65494;42.818;0.404;2023-04-24T03:35:12;20.75;;;2.33;;
55813;SDS011;65494;42.818;0.404;2023-04-24T03:37:38;41.00;;;2.58;;
55813;SDS011;65494;42.818;0.404;2023-04-24T03:40:04;28.80;;;1.92;;
55813;SDS011;65494;42.818;0.404;2023-04-24T03:42:32;9.75;;;1.30;;
55813;SDS011;65494;42.818;0.404;2023-04-24T03:44:58;9.68;;;1.48;;
55813;SDS011;65494;42.818;0.404;2023-04-24T03:47:24;1.40;;;1.05;;
55813;SDS011;65494;42.818;0.404;2023-04-24T03:49:50;0.82;;;0.75;;
55813;SDS011;65494;42.818;0.404;2023-04-24T03:52:17;15.35;;;1.40;;
55813;SDS011;65494;42.818;0.404;2023-04-24T03:54:43;4.80;;;0.90;;
55813;SDS011;65494;42.818;0.404;2023-04-24T03:57:09;4.50;;;1.10;;
55813;SDS011;65494;42.818;0.404;2023-04-24T03:59:35;1.88;;;1.00;;
55813;SDS011;65494;42.818;0.404;2023-04-24T04:02:01;4.78;;;1.20;;
55813;SDS011;65494;42.818;0.404;2023-04-24T04:04:27;0.88;;;0.70;;
55813;SDS011;65494;42.818;0.404;2023-04-24T04:06:53;1.67;;;0.90;;
55813;SDS011;65494;42.818;0.404;2023-04-24T04:09:19;6.55;;;1.63;;
55813;SDS011;65494;42.818;0.404;2023-04-24T04:11:45;11.48;;;0.80;;
55813;SDS011;65494;42.818;0.404;2023-04-24T04:14:11;4.95;;;1.50;;
55813;SDS011;65494;42.818;0.404;2023-04-24T04:16:37;3.30;;;1.00;;
55813;SDS011;65494;42.818;0.404;2023-04-24T04:19:03;1.65;;;0.90;;
55813;SDS011;65494;42.818;0.404;2023-04-24T04:21:30;1.38;;;0.88;;
55813;SDS011;65494;42.818;0.404;2023-04-24T04:23:57;1.25;;;0.80;;
55813;SDS011;65494;42.818;0.404;2023-04-24T04:26:23;1.33;;;1.08;;
55813;SDS011;65494;42.818;0.404;2023-04-24T04:28:51;3.05;;;1.10;;
55813;SDS011;65494;42.818;0.404;2023-04-24T04:31:17;3.03;;;1.20;;
55813;SDS011;65494;42.818;0.404;2023-04-24T04:33:43;6.43;;;0.88;;
55813;SDS011;65494;42.818;0.404;2023-04-24T04:36:09;1.42;;;0.80;;
55813;SDS011;65494;42.818;0.404;2023-04-24T04:38:35;4.35;;;1.23;;
55813;SDS011;65494;42.818;0.404;2023-04-24T04:41:02;2.85;;;1.08;;
55813;SDS011;65494;42.818;0.404;2023-04-24T04:43:28;6.40;;;1.50;;
55813;SDS011;65494;42.818;0.404;2023-04-24T04:45:54;2.47;;;1.20;;
55813;SDS011;65494;42.818;0.404;2023-04-24T04:48:21;3.70;;;1.27;;
55813;SDS011;65494;42.818;0.404;2023-04-24T04:50:47;3.85;;;1.15;;
55813;SDS011;65494;42.818;0.404;2023-04-24T04:53:13;6.68;;;0.95;;
55813;SDS011;65494;42.818;0.404;2023-04-24T04:55:39;11.10;;;1.15;;
55813;SDS011;65494;42.818;0.404;2023-04-24T04:58:05;31.02;;;1.65;;
55813;SDS011;65494;42.818;0.404;2023-04-24T05:00:31;57.90;;;3.05;;
55813;SDS011;65494;42.818;0.404;2023-04-24T05:03:00;22.20;;;1.98;;
55813;SDS011;65494;42.818;0.404;2023-04-24T05:05:26;1.35;;;0.98;;
55813;SDS011;65494;42.818;0.404;2023-04-24T05:07:52;2.28;;;1.20;;
55813;SDS011;65494;42.818;0.404;2023-04-24T05:10:19;2.58;;;1.13;;
55813;SDS011;65494;42.818;0.404;2023-04-24T05:12:45;3.15;;;1.65;;
55813;SDS011;65494;42.818;0.404;2023-04-24T05:15:11;2.03;;;1.00;;
55813;SDS011;65494;42.818;0.404;2023-04-24T05:17:37;3.20;;;1.20;;
55813;SDS011;65494;42.818;0.404;2023-04-24T05:20:04;1.30;;;1.00;;
55813;SDS011;65494;42.818;0.404;2023-04-24T05:22:31;1.42;;;0.90;;
55813;SDS011;65494;42.818;0.404;2023-04-24T05:24:57;2.83;;;1.00;;
55813;SDS011;65494;42.818;0.404;2023-04-24T05:27:24;2.67;;;1.00;;
55813;SDS011;65494;42.818;0.404;2023-04-24T05:29:50;1.88;;;0.70;;
55813;SDS011;65494;42.818;0.404;2023-04-24T05:32:16;3.65;;;0.82;;
55813;SDS011;65494;42.818;0.404;2023-04-24T05:34:42;0.82;;;0.60;;
55813;SDS011;65494;42.818;0.404;2023-04-24T05:37:08;1.75;;;0.70;;
55813;SDS011;65494;42.818;0.404;2023-04-24T05:39:35;1.10;;;0.90;;
55813;SDS011;65494;42.818;0.404;2023-04-24T05:42:02;2.47;;;1.30;;
55813;SDS011;65494;42.818;0.404;2023-04-24T05:44:29;1.90;;;1.00;;
55813;SDS011;65494;42.818;0.404;2023-04-24T05:46:55;1.55;;;0.90;;
55813;SDS011;65494;42.818;0.404;2023-04-24T05:49:22;1.27;;;0.95;;
55813;SDS011;65494;42.818;0.404;2023-04-24T05:51:48;1.10;;;0.90;;
55813;SDS011;65494;42.818;0.404;2023-04-24T05:54:14;3.13;;;1.20;;
55813;SDS011;65494;42.818;0.404;2023-04-24T05:56:40;2.45;;;1.10;;
55813;SDS011;65494;42.818;0.404;2023-04-24T05:59:06;2.42;;;1.20;;
55813;SDS011;65494;42.818;0.404;2023-04-24T06:01:33;0.85;;;0.80;;
55813;SDS011;65494;42.818;0.404;2023-04-24T06:03:59;0.60;;;0.60;;
55813;SDS011;65494;42.818;0.404;2023-04-24T06:06:25;1.70;;;0.90;;
55813;SDS011;65494;42.818;0.404;2023-04-24T06:08:52;6.60;;;1.88;;
55813;SDS011;65494;42.818;0.404;2023-04-24T06:11:18;3.28;;;1.17;;
55813;SDS011;65494;42.818;0.404;2023-04-24T06:13:44;0.75;;;0.75;;
55813;SDS011;65494;42.818;0.404;2023-04-24T06:16:10;1.67;;;1.20;;
55813;SDS011;65494;42.818;0.404;2023-04-24T06:18:36;1.30;;;1.20;;
55813;SDS011;65494;42.818;0.404;2023-04-24T06:21:03;1.30;;;1.02;;
55813;SDS011;65494;42.818;0.404;2023-04-24T06:23:30;2.50;;;1.13;;
55813;SDS011;65494;42.818;0.404;2023-04-24T06:25:57;1.17;;;0.93;;
55813;SDS011;65494;42.818;0.404;2023-04-24T06:28:23;2.33;;;0.98;;
55813;SDS011;65494;42.818;0.404;2023-04-24T06:30:50;2.20;;;1.00;;
55813;SDS011;65494;42.818;0.404;2023-04-24T06:33:16;2.55;;;1.00;;
55813;SDS011;65494;42.818;0.404;2023-04-24T06:35:42;3.33;;;1.00;;
55813;SDS011;65494;42.818;0.404;2023-04-24T06:38:08;1.30;;;1.15;;
55813;SDS011;65494;42.818;0.404;2023-04-24T06:40:34;2.85;;;1.20;;
55813;SDS011;65494;42.818;0.404;2023-04-24T06:43:00;0.85;;;0.80;;
55813;SDS011;65494;42.818;0.404;2023-04-24T06:45:28;0.82;;;0.70;;
55813;SDS011;65494;42.818;0.404;2023-04-24T06:47:54;1.00;;;0.73;;
55813;SDS011;65494;42.818;0.404;2023-04-24T06:50:20;1.55;;;1.10;;
55813;SDS011;65494;42.818;0.404;2023-04-24T06:52:46;2.08;;;0.88;;
55813;SDS011;65494;42.818;0.404;2023-04-24T06:55:12;1.10;;;1.00;;
55813;SDS011;65494;42.818;0.404;2023-04-24T06:57:40;1.25;;;0.95;;
55813;SDS011;65494;42.818;0.404;2023-04-24T07:00:06;1.77;;;0.88;;
55813;SDS011;65494;42.818;0.404;2023-04-24T07:02:34;1.67;;;0.77;;
55813;SDS011;65494;42.818;0.404;2023-04-24T07:05:00;0.90;;;0.60;;
55813;SDS011;65494;42.818;0.404;2023-04-24T07:07:26;3.33;;;0.85;;
55813;SDS011;65494;42.818;0.404;2023-04-24T07:09:53;0.68;;;0.65;;
55813;SDS011;65494;42.818;0.404;2023-04-24T07:12:19;1.70;;;0.52;;
55813;SDS011;65494;42.818;0.404;2023-04-24T07:14:46;0.32;;;0.32;;
55813;SDS011;65494;42.818;0.404;2023-04-24T07:17:13;1.13;;;0.65;;
55813;SDS011;65494;42.818;0.404;2023-04-24T07:19:39;0.50;;;0.40;;
55813;SDS011;65494;42.818;0.404;2023-04-24T07:22:05;0.80;;;0.47;;
55813;SDS011;65494;42.818;0.404;2023-04-24T07:24:32;0.50;;;0.40;;
55813;SDS011;65494;42.818;0.404;2023-04-24T07:26:58;0.40;;;0.32;;
55813;SDS011;65494;42.818;0.404;2023-04-24T07:29:26;0.77;;;0.40;;
55813;SDS011;65494;42.818;0.404;2023-04-24T07:31:52;1.55;;;0.40;;
55813;SDS011;65494;42.818;0.404;2023-04-24T07:34:19;1.20;;;0.45;;
55813;SDS011;65494;42.818;0.404;2023-04-24T07:36:45;1.10;;;0.40;;
55813;SDS011;65494;42.818;0.404;2023-04-24T07:39:12;0.90;;;0.30;;
55813;SDS011;65494;42.818;0.404;2023-04-24T07:41:38;2.58;;;0.50;;
55813;SDS011;65494;42.818;0.404;2023-04-24T07:44:04;1.13;;;0.30;;
55813;SDS011;65494;42.818;0.404;2023-04-24T07:46:30;3.03;;;0.30;;
55813;SDS011;65494;42.818;0.404;2023-04-24T07:48:57;0.60;;;0.30;;
55813;SDS011;65494;42.818;0.404;2023-04-24T07:51:24;0.38;;;0.30;;
55813;SDS011;65494;42.818;0.404;2023-04-24T07:53:52;1.98;;;0.40;;
55813;SDS011;65494;42.818;0.404;2023-04-24T07:56:20;0.63;;;0.30;;
55813;SDS011;65494;42.818;0.404;2023-04-24T07:58:46;0.20;;;0.20;;
55813;SDS011;65494;42.818;0.404;2023-04-24T08:01:12;0.30;;;0.30;;
55813;SDS011;65494;42.818;0.404;2023-04-24T08:03:38;0.85;;;0.30;;
55813;SDS011;65494;42.818;0.404;2023-04-24T08:06:04;0.22;;;0.22;;
55813;SDS011;65494;42.818;0.404;2023-04-24T08:08:30;3.75;;;0.30;;
55813;SDS011;65494;42.818;0.404;2023-04-24T08:10:57;0.60;;;0.30;;
55813;SDS011;65494;42.818;0.404;2023-04-24T08:13:23;2.40;;;0.30;;
55813;SDS011;65494;42.818;0.404;2023-04-24T08:15:49;0.85;;;0.20;;
55813;SDS011;65494;42.818;0.404;2023-04-24T08:18:15;0.20;;;0.20;;
55813;SDS011;65494;42.818;0.404;2023-04-24T08:20:41;0.43;;;0.20;;
55813;SDS011;65494;42.818;0.404;2023-04-24T08:23:07;0.30;;;0.22;;
55813;SDS011;65494;42.818;0.404;2023-04-24T08:25:33;2.10;;;0.20;;
55813;SDS011;65494;42.818;0.404;2023-04-24T08:28:01;3.00;;;0.20;;
55813;SDS011;65494;42.818;0.404;2023-04-24T08:30:28;0.20;;;0.20;;
55813;SDS011;65494;42.818;0.404;2023-04-24T08:32:54;0.55;;;0.20;;
55813;SDS011;65494;42.818;0.404;2023-04-24T08:35:20;0.20;;;0.20;;
55813;SDS011;65494;42.818;0.404;2023-04-24T08:37:46;0.43;;;0.20;;
55813;SDS011;65494;42.818;0.404;2023-04-24T08:40:13;0.57;;;0.20;;
55813;SDS011;65494;42.818;0.404;2023-04-24T08:42:41;2.13;;;0.10;;
55813;SDS011;65494;42.818;0.404;2023-04-24T08:45:08;1.80;;;0.30;;
55813;SDS011;65494;42.818;0.404;2023-04-24T08:47:35;0.25;;;0.20;;
55813;SDS011;65494;42.818;0.404;2023-04-24T08:50:02;0.90;;;0.20;;
55813;SDS011;65494;42.818;0.404;2023-04-24T08:52:28;1.42;;;0.10;;
55813;SDS011;65494;42.818;0.404;2023-04-24T08:54:54;0.80;;;0.30;;
55813;SDS011;65494;42.818;0.404;2023-04-24T08:57:21;0.32;;;0.20;;
55813;SDS011;65494;42.818;0.404;2023-04-24T08:59:47;0.40;;;0.28;;
55813;SDS011;65494;42.818;0.404;2023-04-24T09:02:13;0.30;;;0.20;;
55813;SDS011;65494;42.818;0.404;2023-04-24T09:04:40;0.88;;;0.20;;
55813;SDS011;65494;42.818;0.404;2023-04-24T09:07:06;0.40;;;0.30;;
55813;SDS011;65494;42.818;0.404;2023-04-24T09:09:34;0.17;;;0.15;;
55813;SDS011;65494;42.818;0.404;2023-04-24T09:12:00;0.35;;;0.17;;
55813;SDS011;65494;42.818;0.404;2023-04-24T09:14:27;0.13;;;0.13;;
55813;SDS011;65494;42.818;0.404;2023-04-24T09:16:53;1.73;;;0.30;;
55813;SDS011;65494;42.818;0.404;2023-04-24T09:19:19;0.20;;;0.20;;
55813;SDS011;65494;42.818;0.404;2023-04-24T09:21:46;0.35;;;0.20;;
55813;SDS011;65494;42.818;0.404;2023-04-24T09:24:19;1.90;;;0.30;;
55813;SDS011;65494;42.818;0.404;2023-04-24T09:29:14;0.25;;;0.20;;
55813;SDS011;65494;42.818;0.404;2023-04-24T09:31:40;1.38;;;0.20;;
55813;SDS011;65494;42.818;0.404;2023-04-24T09:34:06;0.95;;;0.30;;
55813;SDS011;65494;42.818;0.404;2023-04-24T09:36:37;0.17;;;0.17;;
55813;SDS011;65494;42.818;0.404;2023-04-24T09:39:07;0.25;;;0.20;;
55813;SDS011;65494;42.818;0.404;2023-04-24T09:41:35;1.50;;;0.30;;
55813;SDS011;65494;42.818;0.404;2023-04-24T09:44:13;1.02;;;0.28;;
55813;SDS011;65494;42.818;0.404;2023-04-24T09:46:40;0.82;;;0.20;;
55813;SDS011;65494;42.818;0.404;2023-04-24T09:49:13;1.10;;;0.20;;
55813;SDS011;65494;42.818;0.404;2023-04-24T09:51:40;2.30;;;0.30;;
55813;SDS011;65494;42.818;0.404;2023-04-24T09:54:15;1.40;;;1.10;;
55813;SDS011;65494;42.818;0.404;2023-04-24T09:56:44;2.00;;;0.35;;
55813;SDS011;65494;42.818;0.404;2023-04-24T09:59:12;0.80;;;0.32;;
55813;SDS011;65494;42.818;0.404;2023-04-24T10:01:38;0.20;;;0.20;;
55813;SDS011;65494;42.818;0.404;2023-04-24T10:04:14;1.75;;;0.32;;
55813;SDS011;65494;42.818;0.404;2023-04-24T10:06:41;0.50;;;0.22;;
55813;SDS011;65494;42.818;0.404;2023-04-24T10:09:08;0.20;;;0.20;;
55813;SDS011;65494;42.818;0.404;2023-04-24T10:11:36;0.47;;;0.32;;
55813;SDS011;65494;42.818;0.404;2023-04-24T10:14:02;0.65;;;0.30;;
55813;SDS011;65494;42.818;0.404;2023-04-24T10:16:29;0.10;;;0.10;;
55813;SDS011;65494;42.818;0.404;2023-04-24T10:18:55;0.50;;;0.20;;
55813;SDS011;65494;42.818;0.404;2023-04-24T10:21:23;1.95;;;0.20;;
55813;SDS011;65494;42.818;0.404;2023-04-24T10:23:49;1.00;;;0.32;;
55813;SDS011;65494;42.818;0.404;2023-04-24T10:26:16;0.63;;;0.25;;
55813;SDS011;65494;42.818;0.404;2023-04-24T10:28:46;0.38;;;0.20;;
55813;SDS011;65494;42.818;0.404;2023-04-24T10:31:13;0.68;;;0.40;;
55813;SDS011;65494;42.818;0.404;2023-04-24T10:33:40;0.25;;;0.25;;
55813;SDS011;65494;42.818;0.404;2023-04-24T10:36:07;1.20;;;0.40;;
55813;SDS011;65494;42.818;0.404;2023-04-24T10:38:33;0.28;;;0.28;;
55813;SDS011;65494;42.818;0.404;2023-04-24T10:41:10;2.47;;;0.40;;
55813;SDS011;65494;42.818;0.404;2023-04-24T10:43:41;0.98;;;0.30;;
55813;SDS011;65494;42.818;0.404;2023-04-24T10:46:08;0.50;;;0.30;;
55813;SDS011;65494;42.818;0.404;2023-04-24T10:48:41;0.43;;;0.20;;
55813;SDS011;65494;42.818;0.404;2023-04-24T10:51:11;0.68;;;0.20;;
55813;SDS011;65494;42.818;0.404;2023-04-24T10:53:37;0.85;;;0.30;;
55813;SDS011;65494;42.818;0.404;2023-04-24T10:58:41;1.27;;;0.50;;
55813;SDS011;65494;42.818;0.404;2023-04-24T11:01:11;2.13;;;0.38;;
55813;SDS011;65494;42.818;0.404;2023-04-24T11:03:56;1.60;;;0.30;;
55813;SDS011;65494;42.818;0.404;2023-04-24T11:06:32;3.13;;;0.40;;
55813;SDS011;65494;42.818;0.404;2023-04-24T11:09:09;2.08;;;0.38;;
55813;SDS011;65494;42.818;0.404;2023-04-24T11:11:38;0.77;;;0.30;;
55813;SDS011;65494;42.818;0.404;2023-04-24T11:14:10;4.95;;;0.52;;
55813;SDS011;65494;42.818;0.404;2023-04-24T11:16:42;1.13;;;0.30;;
55813;SDS011;65494;42.818;0.404;2023-04-24T11:21:46;1.02;;;0.30;;
55813;SDS011;65494;42.818;0.404;2023-04-24T11:26:47;0.82;;;0.40;;
55813;SDS011;65494;42.818;0.404;2023-04-24T11:29:13;1.75;;;0.40;;
55813;SDS011;65494;42.818;0.404;2023-04-24T11:31:40;1.35;;;0.30;;
55813;SDS011;65494;42.818;0.404;2023-04-24T11:34:13;1.73;;;0.28;;
55813;SDS011;65494;42.818;0.404;2023-04-24T11:36:48;0.80;;;0.30;;
55813;SDS011;65494;42.818;0.404;2023-04-24T11:39:15;0.38;;;0.30;;
55813;SDS011;65494;42.818;0.404;2023-04-24T11:41:41;0.30;;;0.30;;
55813;SDS011;65494;42.818;0.404;2023-04-24T11:44:08;0.30;;;0.28;;
55813;SDS011;65494;42.818;0.404;2023-04-24T11:46:34;1.95;;;0.47;;
55813;SDS011;65494;42.818;0.404;2023-04-24T11:49:02;3.08;;;0.30;;
55813;SDS011;65494;42.818;0.404;2023-04-24T11:51:28;1.15;;;0.40;;
55813;SDS011;65494;42.818;0.404;2023-04-24T11:53:56;0.88;;;0.30;;
55813;SDS011;65494;42.818;0.404;2023-04-24T11:56:23;0.43;;;0.25;;
55813;SDS011;65494;42.818;0.404;2023-04-24T11:58:51;0.77;;;0.30;;
55813;SDS011;65494;42.818;0.404;2023-04-24T12:01:18;7.32;;;0.65;;
55813;SDS011;65494;42.818;0.404;2023-04-24T12:03:49;0.60;;;0.30;;
55813;SDS011;65494;42.818;0.404;2023-04-24T12:06:19;0.35;;;0.30;;
55813;SDS011;65494;42.818;0.404;2023-04-24T12:08:46;1.33;;;0.40;;
55813;SDS011;65494;42.818;0.404;2023-04-24T12:11:14;0.38;;;0.32;;
55813;SDS011;65494;42.818;0.404;2023-04-24T12:13:40;1.83;;;0.50;;
55813;SDS011;65494;42.818;0.404;2023-04-24T12:16:06;3.00;;;0.40;;
55813;SDS011;65494;42.818;0.404;2023-04-24T12:18:32;0.45;;;0.32;;
55813;SDS011;65494;42.818;0.404;2023-04-24T12:23:43;0.85;;;0.40;;
55813;SDS011;65494;42.818;0.404;2023-04-24T12:26:11;1.58;;;0.50;;
55813;SDS011;65494;42.818;0.404;2023-04-24T12:28:37;1.35;;;0.40;;
55813;SDS011;65494;42.818;0.404;2023-04-24T12:31:03;0.90;;;0.45;;
55813;SDS011;65494;42.818;0.404;2023-04-24T12:33:34;0.47;;;0.38;;
55813;SDS011;65494;42.818;0.404;2023-04-24T12:36:00;1.38;;;0.50;;
55813;SDS011;65494;42.818;0.404;2023-04-24T12:38:27;2.95;;;0.40;;
55813;SDS011;65494;42.818;0.404;2023-04-24T12:41:08;1.98;;;0.60;;
55813;SDS011;65494;42.818;0.404;2023-04-24T12:43:34;0.70;;;0.40;;
55813;SDS011;65494;42.818;0.404;2023-04-24T12:46:00;0.95;;;0.47;;
55813;SDS011;65494;42.818;0.404;2023-04-24T12:48:27;0.60;;;0.40;;
55813;SDS011;65494;42.818;0.404;2023-04-24T12:50:53;1.08;;;0.50;;
55813;SDS011;65494;42.818;0.404;2023-04-24T12:53:21;1.20;;;0.40;;
55813;SDS011;65494;42.818;0.404;2023-04-24T12:55:47;1.40;;;0.40;;
55813;SDS011;65494;42.818;0.404;2023-04-24T12:58:18;2.20;;;0.40;;
55813;SDS011;65494;42.818;0.404;2023-04-24T13:00:45;1.13;;;0.50;;
55813;SDS011;65494;42.818;0.404;2023-04-24T13:03:11;1.10;;;0.30;;
55813;SDS011;65494;42.818;0.404;2023-04-24T13:05:37;2.85;;;0.50;;
55813;SDS011;65494;42.818;0.404;2023-04-24T13:08:03;2.42;;;0.30;;
55813;SDS011;65494;42.818;0.404;2023-04-24T13:10:29;1.15;;;0.43;;
55813;SDS011;65494;42.818;0.404;2023-04-24T13:12:56;2.58;;;0.45;;
55813;SDS011;65494;42.818;0.404;2023-04-24T13:15:22;2.38;;;0.50;;
55813;SDS011;65494;42.818;0.404;2023-04-24T13:17:48;3.38;;;0.40;;
55813;SDS011;65494;42.818;0.404;2023-04-24T13:20:14;1.45;;;0.50;;
55813;SDS011;65494;42.818;0.404;2023-04-24T13:22:40;1.70;;;0.47;;
55813;SDS011;65494;42.818;0.404;2023-04-24T13:25:06;3.40;;;0.60;;
55813;SDS011;65494;42.818;0.404;2023-04-24T13:27:32;4.13;;;0.60;;
55813;SDS011;65494;42.818;0.404;2023-04-24T13:29:59;1.27;;;0.60;;
55813;SDS011;65494;42.818;0.404;2023-04-24T13:32:25;0.73;;;0.40;;
55813;SDS011;65494;42.818;0.404;2023-04-24T13:34:51;2.10;;;0.63;;
55813;SDS011;65494;42.818;0.404;2023-04-24T13:37:18;1.20;;;0.50;;
55813;SDS011;65494;42.818;0.404;2023-04-24T13:39:44;0.93;;;0.55;;
55813;SDS011;65494;42.818;0.404;2023-04-24T13:42:10;1.80;;;0.50;;
55813;SDS011;65494;42.818;0.404;2023-04-24T13:44:36;1.13;;;0.50;;
55813;SDS011;65494;42.818;0.404;2023-04-24T13:47:04;1.90;;;0.60;;
55813;SDS011;65494;42.818;0.404;2023-04-24T13:49:31;1.30;;;0.60;;
55813;SDS011;65494;42.818;0.404;2023-04-24T13:51:57;2.25;;;0.70;;
55813;SDS011;65494;42.818;0.404;2023-04-24T13:54:23;2.47;;;0.70;;
55813;SDS011;65494;42.818;0.404;2023-04-24T13:56:51;3.72;;;0.60;;
55813;SDS011;65494;42.818;0.404;2023-04-24T13:59:17;1.30;;;0.32;;
55813;SDS011;65494;42.818;0.404;2023-04-24T14:01:44;1.02;;;0.50;;
55813;SDS011;65494;42.818;0.404;2023-04-24T14:04:10;0.57;;;0.40;;
55813;SDS011;65494;42.818;0.404;2023-04-24T14:06:37;0.88;;;0.40;;
55813;SDS011;65494;42.818;0.404;2023-04-24T14:09:03;0.65;;;0.43;;
55813;SDS011;65494;42.818;0.404;2023-04-24T14:11:29;1.83;;;0.50;;
55813;SDS011;65494;42.818;0.404;2023-04-24T14:13:55;3.65;;;1.00;;
55813;SDS011;65494;42.818;0.404;2023-04-24T14:16:21;2.67;;;0.47;;
55813;SDS011;65494;42.818;0.404;2023-04-24T14:18:47;2.90;;;0.50;;
55813;SDS011;65494;42.818;0.404;2023-04-24T14:21:13;2.97;;;0.70;;
55813;SDS011;65494;42.818;0.404;2023-04-24T14:23:40;2.97;;;0.93;;
55813;SDS011;65494;42.818;0.404;2023-04-24T14:26:06;1.73;;;0.60;;
55813;SDS011;65494;42.818;0.404;2023-04-24T14:28:32;1.95;;;1.17;;
55813;SDS011;65494;42.818;0.404;2023-04-24T14:30:59;5.70;;;1.35;;
55813;SDS011;65494;42.818;0.404;2023-04-24T14:33:25;3.80;;;0.80;;
55813;SDS011;65494;42.818;0.404;2023-04-24T14:35:51;7.95;;;1.25;;
55813;SDS011;65494;42.818;0.404;2023-04-24T14:38:17;8.30;;;3.05;;
55813;SDS011;65494;42.818;0.404;2023-04-24T14:40:43;5.35;;;1.55;;
55813;SDS011;65494;42.818;0.404;2023-04-24T14:43:09;7.93;;;2.72;;
55813;SDS011;65494;42.818;0.404;2023-04-24T14:45:36;14.93;;;6.00;;
55813;SDS011;65494;42.818;0.404;2023-04-24T14:48:02;15.05;;;5.65;;
55813;SDS011;65494;42.818;0.404;2023-04-24T14:50:28;6.50;;;1.98;;
55813;SDS011;65494;42.818;0.404;2023-04-24T14:52:54;11.15;;;4.68;;
55813;SDS011;65494;42.818;0.404;2023-04-24T14:55:24;9.10;;;3.72;;